TO03 weather

Aviosuperficie Moncucco
Vische (TO), Piedmont, Italy

Public forecast

Using degrees Celsius for public forecast. Weather courtesy of forecast.io.

Closest aviation weather report (METAR) to Aviosuperficie Moncucco

Closest report is Turin Airport, 14.3 nm (26.5 km) SW. Retrieved 2019/12/10 21:20 UTC (0 seconds ago):

LIMF 102120Z 29004KT CAVOK 03/M04 Q1021

Closest aviation forecast (TAF) to Aviosuperficie Moncucco

Closest forecast is Turin Airport, 14.3 nm (26.5 km) SW. Retrieved 2019/12/10 18:00 UTC (3 hours ago):

TAF LIMF 101700Z 1018/1118 VRB05KT CAVOK